Track Сидоров Николай

Time Latitude Longitude Accuracy (66% radius in meters) Altitude (meters) Speed (km/hour) Bearing (degrees) Battery (%) GPS flag
03:28:47 51.898138 107.664577 3.2000000476837 680.2 0 36.470001220703 80 1 delete
03:28:35 51.898138 107.664577 3.4000000953674 680.2 0 36.470001220703 80 1 delete
03:28:23 51.898105 107.664560 3.2999999523163 679.4 1.1349625587463 30.229999542236 80 1 delete
03:28:11 51.898042 107.664418 3.5999999046326 678.7 0 77.059997558594 80 1 delete
03:28:01 51.897998 107.664270 3.7999999523163 677.9 0 44.950000762939 80 1 delete
03:28:00 51.897987 107.664253 3.7999999523163 677.8 0 36.470001220703 80 1 delete
03:27:53 51.897930 107.664167 3.2000000476837 677.3 0 42.180000305176 80 1 delete
03:27:47 51.897887 107.664088 3.5 677.1 0 68.800003051758 80 1 delete
03:27:43 51.897852 107.664043 3.5999999046326 676.7 0 79.809997558594 80 1 delete
03:27:35 51.897797 107.663885 3.7999999523163 675.8 0 64.720001220703 80 1 delete
03:27:33 51.897787 107.663848 3.7999999523163 675.7 1.7382169961929 64.709999084473 80 1 delete
03:27:29 51.897758 107.663738 4.0999999046326 675.3 0 58.560001373291 80 1 delete
03:27:23 51.897705 107.663558 5.3000001907349 675.2 0 78.5 80 1 delete
03:27:21 51.897695 107.663512 3.5999999046326 675.3 0 64.940002441406 80 1 delete
03:27:17 51.897655 107.663405 3.5999999046326 675.4 1.9960927963257 68.660003662109 80 1 delete
03:27:11 51.897587 107.663255 3.5 675.3 0 57.069999694824 80 1 delete
03:27:09 51.897562 107.663205 3.5 675.3 1.9523414373398 48.349998474121 80 1 delete
03:27:05 51.897505 107.663118 3.7000000476837 675.1 0 47.259998321533 80 1 delete
03:26:59 51.897425 107.663012 3.7000000476837 675 0 44.279998779297 80 1 delete
03:26:57 51.897397 107.662978 3.7999999523163 675 1.598212480545 56.580001831055 80 1 delete
03:26:53 51.897345 107.662870 4.0999999046326 674.8 1.1565808057785 63.819999694824 80 1 delete
03:26:43 51.897258 107.662835 2.7999999523163 674 0 45.479999542236 80 1 delete
03:26:17 51.897255 107.662843 3.5 674 0 337.79998779297 80 1 delete
03:26:05 51.897235 107.662992 3.5999999046326 673.6 0 275.17001342773 80 1 delete
03:26:00 51.897245 107.663092 3.5999999046326 673.2 0 298 80 1 delete
03:25:49 51.897247 107.663140 3.5999999046326 672.5 0 272.54000854492 80 1 delete
03:25:31 51.897263 107.663312 4.3000001907349 672.7 0 53.130001068115 80 1 delete
03:25:03 51.897160 107.663318 4 674.1 0 135.44000244141 80 1 delete
03:24:51 51.897070 107.663277 3.7999999523163 674.9 0.46994137763977 12.920000076294 80 1 delete
03:24:33 51.896975 107.663283 3.5999999046326 675.5 0 13.779999732971 80 1 delete
03:24:17 51.896883 107.663280 3.5999999046326 675.5 0 341.48999023438 80 1 delete
03:24:03 51.896795 107.663333 3.5999999046326 675.3 0 328.42999267578 80 1 delete
03:23:55 51.896760 107.663375 3.9000000953674 675.3 0 317.63000488281 80 1 delete
03:23:39 51.896713 107.663408 3.9000000953674 675.3 0 17.290000915527 80 1 delete
03:23:37 51.896708 107.663407 3.7000000476837 675.2 0 19.440000534058 80 1 delete
03:23:27 51.896663 107.663382 3.0999999046326 675.1 0.55126750469208 43.599998474121 80 1 delete
03:23:15 51.896625 107.663390 3.9000000953674 676 0 207.67999267578 80 1 delete
03:23:04 51.896577 107.663318 5.1999998092651 676.5 0 221.05000305176 80 1 delete
03:22:52 51.896620 107.663327 5.5 676.7 0 242.88000488281 80 1 delete
03:22:43 51.896637 107.663413 4.9000000953674 677.2 0 33.380001068115 80 1 delete
03:22:31 51.896637 107.663413 3.9000000953674 677.2 0 33.380001068115 80 1 delete
03:22:21 51.896637 107.663413 4.0999999046326 677.2 0 33.380001068115 80 1 delete
03:22:09 51.896637 107.663413 3.7999999523163 677.2 0 33.380001068115 80 1 delete
03:21:53 51.896637 107.663413 3.2999999523163 677.2 0 33.380001068115 80 1 delete
03:21:41 51.896637 107.663413 3 677.2 0 33.380001068115 80 1 delete
03:21:33 51.896622 107.663392 3.0999999046326 677.2 0 54.630001068115 80 1 delete
03:21:30 51.896605 107.663357 2.9000000953674 677.3 0 54.830001831055 80 1 delete
03:21:23 51.896557 107.663255 2.9000000953674 677.7 0.86215972900391 83.5 80 1 delete
03:21:17 51.896547 107.663180 3.0999999046326 678.1 0.68149220943451 109.33999633789 80 1 delete
03:21:09 51.896588 107.663103 2.7000000476837 678.1 0.82818806171417 106.43000030518 80 1 delete